createdAt,value
2022-11-14T00:00:50.473Z,100211.34
2022-11-14T00:05:51.721Z,100216.41
2022-11-14T00:10:53.095Z,100207.63
2022-11-14T00:15:54.408Z,100208.44
2022-11-14T00:20:55.703Z,100209.06
2022-11-14T00:25:57.475Z,100215.19
2022-11-14T00:30:58.702Z,100204.38
2022-11-14T00:35:59.954Z,100205.97
2022-11-14T00:41:01.230Z,100200.22
2022-11-14T00:46:02.540Z,100187.28
2022-11-14T00:51:03.937Z,100195.56
2022-11-14T00:56:06.420Z,100202.78
2022-11-14T01:01:07.892Z,100205.13
2022-11-14T01:06:11.318Z,100191.59
2022-11-14T01:11:21.851Z,100188.41
2022-11-14T01:16:23.239Z,100184.97
2022-11-14T01:21:24.675Z,100179.06
2022-11-14T01:26:26.057Z,100174.84
2022-11-14T01:31:27.375Z,100169.84
2022-11-14T01:36:28.619Z,100162.34
2022-11-14T01:41:29.895Z,100141.25
2022-11-14T01:46:38.445Z,100144.34
2022-11-14T01:51:44.349Z,100135.97
2022-11-14T01:56:57.281Z,100137.56
2022-11-14T02:02:03.849Z,100128.09
2022-11-14T02:07:06.921Z,100133.22
2022-11-14T02:12:12.282Z,100122.09
2022-11-14T02:17:28.995Z,100119.88
2022-11-14T02:22:31.549Z,100105.16
2022-11-14T02:27:34.728Z,100110.25
2022-11-14T02:33:10.030Z,100108.97
2022-11-14T02:37:57.573Z,100093.84
2022-11-14T02:42:59.182Z,100091.59
2022-11-14T02:48:00.502Z,100101.25
2022-11-14T02:53:01.752Z,100082.19
2022-11-14T02:58:03.041Z,100077.00
2022-11-14T03:03:04.416Z,100085.25
2022-11-14T03:08:05.829Z,100082.50
2022-11-14T03:13:07.249Z,100072.25
2022-11-14T03:18:08.728Z,100057.31
2022-11-14T03:23:10.600Z,100057.63
2022-11-14T03:28:12.193Z,100050.97
2022-11-14T03:33:13.472Z,100054.00
2022-11-14T03:38:15.097Z,100046.06
2022-11-14T03:43:17.692Z,100050.16
2022-11-14T03:48:19.084Z,100059.81
2022-11-14T03:53:20.662Z,100053.50
2022-11-14T03:58:22.122Z,100051.78
2022-11-14T04:03:24.851Z,100043.75
2022-11-14T04:08:26.152Z,100047.34
2022-11-14T04:13:27.596Z,100040.56
2022-11-14T04:18:29.253Z,100036.09
2022-11-14T04:23:30.731Z,100040.88
2022-11-14T04:28:32.487Z,100027.53
2022-11-14T04:33:34.018Z,100023.75
2022-11-14T04:38:35.654Z,100027.63
2022-11-14T04:43:37.224Z,100025.72
2022-11-14T04:48:38.556Z,100030.81
2022-11-14T04:53:39.823Z,100036.13
2022-11-14T04:58:41.119Z,100034.63
2022-11-14T05:03:42.713Z,100034.53
2022-11-14T05:08:44.048Z,100031.66
2022-11-14T05:13:46.161Z,100028.69
2022-11-14T05:18:47.704Z,100028.28
2022-11-14T05:23:48.985Z,100017.72
2022-11-14T05:28:50.446Z,100020.13
2022-11-14T05:33:52.423Z,100020.88
2022-11-14T05:38:54.357Z,100024.88
2022-11-14T05:43:55.749Z,100030.41
2022-11-14T05:48:56.983Z,100027.44
2022-11-14T05:53:58.294Z,100024.28
2022-11-14T05:58:59.569Z,100029.88
2022-11-14T06:04:00.991Z,100029.66
2022-11-14T06:09:02.515Z,100035.06
2022-11-14T06:14:06.952Z,100041.63
2022-11-14T06:19:10.995Z,100035.06
2022-11-14T06:24:12.293Z,100027.88
2022-11-14T06:29:13.686Z,100030.72
2022-11-14T06:34:15.078Z,100045.44
2022-11-14T06:39:16.340Z,100044.72
2022-11-14T06:44:17.876Z,100050.41
2022-11-14T06:49:19.192Z,100016.75
2022-11-14T06:54:20.487Z,100016.84
2022-11-14T06:59:21.882Z,100024.56
2022-11-14T07:04:23.177Z,100009.72
2022-11-14T07:09:24.547Z,100009.22
2022-11-14T07:14:25.805Z,100016.78
2022-11-14T07:19:27.133Z,100013.31
2022-11-14T07:24:28.401Z,100022.31
2022-11-14T07:29:29.640Z,100040.88
2022-11-14T07:34:30.974Z,100044.81
2022-11-14T07:39:32.671Z,100057.81
2022-11-14T07:44:34.030Z,100047.75
2022-11-14T07:49:35.354Z,100049.22
2022-11-14T07:54:36.617Z,100049.66
2022-11-14T07:59:37.882Z,100045.31
2022-11-14T08:04:39.110Z,100029.75
2022-11-14T08:09:40.413Z,100030.56
2022-11-14T08:14:41.712Z,100043.28
2022-11-14T08:19:42.977Z,100047.00
2022-11-14T08:24:44.237Z,100041.38
2022-11-14T08:29:45.523Z,100048.88
2022-11-14T08:34:46.852Z,100041.59
2022-11-14T08:39:48.132Z,100037.13
2022-11-14T08:44:51.996Z,100029.25
2022-11-14T08:49:53.640Z,100039.75
2022-11-14T08:54:54.981Z,100049.63
2022-11-14T08:59:56.206Z,100059.59
2022-11-14T09:04:57.644Z,100070.81
2022-11-14T09:09:59.006Z,100068.88
2022-11-14T09:15:00.460Z,100067.59
2022-11-14T09:20:01.680Z,100054.00
2022-11-14T09:25:03.121Z,100063.91
2022-11-14T09:30:05.455Z,100049.22
2022-11-14T09:35:07.013Z,100043.69
2022-11-14T09:40:11.467Z,100044.81
2022-11-14T09:45:16.017Z,100036.56
2022-11-14T09:50:25.901Z,100041.88
2022-11-14T09:55:35.202Z,100024.63
2022-11-14T10:01:12.421Z,100023.22
2022-11-14T10:06:22.584Z,100007.34
2022-11-14T10:11:34.660Z,100004.75
2022-11-14T10:16:55.444Z,99994.78
2022-11-14T10:22:05.161Z,99991.16
2022-11-14T10:27:14.898Z,99985.22
2022-11-14T10:32:43.843Z,99984.91
2022-11-14T10:37:57.237Z,99978.88
2022-11-14T10:43:07.036Z,99972.63
2022-11-14T10:48:30.248Z,99974.06
2022-11-14T10:53:50.368Z,99978.34
2022-11-14T10:58:51.804Z,99948.13
2022-11-14T11:03:53.117Z,99940.28
2022-11-14T11:09:13.013Z,99941.59
2022-11-14T11:14:18.834Z,99933.31
2022-11-14T11:19:27.358Z,99915.53
2022-11-14T11:24:34.268Z,99903.28
2022-11-14T11:29:35.544Z,99906.56
2022-11-14T11:34:36.790Z,99909.28
2022-11-14T11:39:45.438Z,99898.66
2022-11-14T11:44:50.680Z,99884.47
2022-11-14T11:49:54.638Z,99880.97
2022-11-14T11:55:05.156Z,99873.66
2022-11-14T12:00:20.527Z,99875.78
2022-11-14T12:05:40.985Z,99873.63
2022-11-14T12:10:43.312Z,99889.69
2022-11-14T12:15:55.225Z,99875.69
2022-11-14T12:21:02.639Z,99873.00
2022-11-14T12:26:28.282Z,99869.81
2022-11-14T12:31:35.279Z,99862.41
2022-11-14T12:36:37.553Z,99872.63
2022-11-14T12:41:40.440Z,99871.34
2022-11-14T12:47:07.029Z,99870.19
2022-11-14T12:52:46.277Z,99855.66
2022-11-14T12:58:09.772Z,99851.75
2022-11-14T13:03:26.445Z,99840.00
2022-11-14T13:09:16.040Z,99822.19
2022-11-14T13:14:37.996Z,99837.53
2022-11-14T13:20:04.806Z,99833.72
2022-11-14T13:25:06.097Z,99834.41
2022-11-14T13:30:08.132Z,99831.63
2022-11-14T13:35:38.965Z,99830.94
2022-11-14T13:41:13.903Z,99823.34
2022-11-14T13:46:30.556Z,99814.06
2022-11-14T13:51:47.720Z,99805.22
2022-11-14T13:57:00.360Z,99800.19
2022-11-14T14:02:23.192Z,99810.44
2022-11-14T14:07:41.238Z,99796.13
2022-11-14T14:12:48.704Z,99800.06
2022-11-14T14:18:02.568Z,99794.59
2022-11-14T14:23:33.348Z,99784.63
2022-11-14T14:29:06.264Z,99789.97
2022-11-14T14:34:29.381Z,99795.56
2022-11-14T14:39:30.726Z,99780.56
2022-11-14T14:44:37.929Z,99776.38
2022-11-14T14:49:39.328Z,99779.47
2022-11-14T14:54:40.614Z,99775.66
2022-11-14T14:59:42.145Z,99774.56
2022-11-14T15:04:43.613Z,99767.38
2022-11-14T15:09:53.617Z,99763.03
2022-11-14T15:14:55.827Z,99759.81
2022-11-14T15:19:57.394Z,99756.59
2022-11-14T15:25:13.869Z,99752.94
2022-11-14T15:30:25.322Z,99746.47
2022-11-14T15:35:28.377Z,99754.06
2022-11-14T15:40:34.302Z,99746.22
2022-11-14T15:45:40.546Z,99751.25
2022-11-14T15:50:42.156Z,99749.69
2022-11-14T15:55:43.457Z,99747.31
2022-11-14T16:00:47.687Z,99754.19
2022-11-14T16:05:49.097Z,99751.09
2022-11-14T16:10:50.356Z,99758.28
2022-11-14T16:15:51.685Z,99764.84
2022-11-14T16:20:58.556Z,99762.19
2022-11-14T16:25:59.806Z,99764.72
2022-11-14T16:31:01.103Z,99766.69
2022-11-14T16:36:02.413Z,99773.69
2022-11-14T16:41:08.683Z,99774.13
2022-11-14T16:46:11.361Z,99776.34
2022-11-14T16:51:40.931Z,99778.75
2022-11-14T16:56:34.012Z,99778.19
2022-11-14T17:01:35.384Z,99776.78
2022-11-14T17:06:36.820Z,99779.31
2022-11-14T17:11:38.111Z,99784.22
2022-11-14T17:16:39.374Z,99786.16
2022-11-14T17:21:40.680Z,99791.22
2022-11-14T17:26:42.514Z,99796.13
2022-11-14T17:31:47.070Z,99792.22
2022-11-14T17:36:48.619Z,99791.06
2022-11-14T17:41:49.873Z,99791.94
2022-11-14T17:46:51.231Z,99791.22
2022-11-14T17:51:52.493Z,99796.41
2022-11-14T17:56:55.172Z,99794.13
2022-11-14T18:01:59.786Z,99781.81
2022-11-14T18:07:01.341Z,99803.25
2022-11-14T18:12:02.744Z,99795.41
2022-11-14T18:17:12.945Z,99799.75
2022-11-14T18:22:14.937Z,99800.59
2022-11-14T18:27:16.373Z,99802.81
2022-11-14T18:32:18.165Z,99800.88
2022-11-14T18:37:19.486Z,99803.97
2022-11-14T18:42:20.775Z,99810.16
2022-11-14T18:47:22.056Z,99805.94
2022-11-14T18:52:23.384Z,99809.72
2022-11-14T18:57:24.681Z,99810.69
2022-11-14T19:02:26.005Z,99811.69
2022-11-14T19:07:29.316Z,99819.28
2022-11-14T19:12:30.650Z,99821.69
2022-11-14T19:17:31.970Z,99823.03
2022-11-14T19:22:33.288Z,99817.16
2022-11-14T19:27:34.839Z,99812.25
2022-11-14T19:32:36.227Z,99816.59
2022-11-14T19:37:37.607Z,99818.44
2022-11-14T19:42:38.827Z,99816.19
2022-11-14T19:47:40.112Z,99816.88
2022-11-14T19:52:41.381Z,99819.97
2022-11-14T19:57:42.666Z,99821.38
2022-11-14T20:02:47.032Z,99824.75
2022-11-14T20:07:48.339Z,99821.22
2022-11-14T20:12:49.715Z,99822.66
2022-11-14T20:17:51.020Z,99818.13
2022-11-14T20:22:52.310Z,99819.00
2022-11-14T20:27:53.719Z,99812.69
2022-11-14T20:32:55.248Z,99820.28
2022-11-14T20:37:59.381Z,99824.19
2022-11-14T20:43:04.807Z,99815.63
2022-11-14T20:48:06.314Z,99823.63
2022-11-14T20:53:07.624Z,99810.28
2022-11-14T20:58:08.962Z,99822.09
2022-11-14T21:03:10.325Z,99818.03
2022-11-14T21:08:12.512Z,99818.72
2022-11-14T21:13:34.668Z,99815.50
2022-11-14T21:18:38.429Z,99813.09
2022-11-14T21:23:39.733Z,99825.72
2022-11-14T21:28:43.744Z,99816.03
2022-11-14T21:33:46.194Z,99822.50
2022-11-14T21:38:47.524Z,99822.22
2022-11-14T21:43:53.318Z,99827.56
2022-11-14T21:48:55.881Z,99825.03
2022-11-14T21:53:58.456Z,99829.81
2022-11-14T21:59:13.997Z,99833.75
2022-11-14T22:04:15.736Z,99833.88
2022-11-14T22:09:17.127Z,99838.50
2022-11-14T22:14:18.476Z,99828.13
2022-11-14T22:19:19.836Z,99836.41
2022-11-14T22:24:22.558Z,99837.81
2022-11-14T22:29:23.807Z,99833.16
2022-11-14T22:34:25.092Z,99831.78
2022-11-14T22:39:26.353Z,99838.94
2022-11-14T22:44:27.605Z,99836.81
2022-11-14T22:49:28.850Z,99830.38
2022-11-14T22:54:30.109Z,99827.28
2022-11-14T22:59:31.422Z,99836.69
2022-11-14T23:04:32.668Z,99856.03
2022-11-14T23:09:33.909Z,99856.59
2022-11-14T23:14:35.211Z,99852.22
2022-11-14T23:19:36.459Z,99846.78
2022-11-14T23:24:37.718Z,99836.38
2022-11-14T23:29:39.199Z,99834.97
2022-11-14T23:34:40.423Z,99831.44
2022-11-14T23:39:41.686Z,99832.00
2022-11-14T23:44:42.992Z,99829.88
2022-11-14T23:49:44.305Z,99830.44
2022-11-14T23:54:45.646Z,99822.03
2022-11-14T23:59:46.975Z,99821.31
